sensor_id;sensor_type;location;lat;lon;timestamp;P1;durP1;ratioP1;P2;durP2;ratioP2
63218;SDS011;49320;52.512;13.448;2022-10-16T00:01:36;2.40;;;1.90;;
63218;SDS011;49320;52.512;13.448;2022-10-16T00:04:04;2.10;;;1.90;;
63218;SDS011;49320;52.512;13.448;2022-10-16T00:06:31;2.30;;;2.03;;
63218;SDS011;49320;52.512;13.448;2022-10-16T00:08:58;3.53;;;1.75;;
63218;SDS011;49320;52.512;13.448;2022-10-16T00:11:29;2.17;;;1.80;;
63218;SDS011;49320;52.512;13.448;2022-10-16T00:14:00;2.05;;;1.48;;
63218;SDS011;49320;52.512;13.448;2022-10-16T00:16:29;2.25;;;1.55;;
63218;SDS011;49320;52.512;13.448;2022-10-16T00:18:57;2.03;;;1.77;;
63218;SDS011;49320;52.512;13.448;2022-10-16T00:21:25;2.67;;;2.00;;
63218;SDS011;49320;52.512;13.448;2022-10-16T00:23:59;2.30;;;1.92;;
63218;SDS011;49320;52.512;13.448;2022-10-16T00:26:31;2.33;;;1.83;;
63218;SDS011;49320;52.512;13.448;2022-10-16T00:29:00;2.20;;;2.00;;
63218;SDS011;49320;52.512;13.448;2022-10-16T00:31:28;2.55;;;1.98;;
63218;SDS011;49320;52.512;13.448;2022-10-16T00:33:55;2.70;;;2.30;;
63218;SDS011;49320;52.512;13.448;2022-10-16T00:36:23;2.40;;;2.00;;
63218;SDS011;49320;52.512;13.448;2022-10-16T00:38:53;2.78;;;2.10;;
63218;SDS011;49320;52.512;13.448;2022-10-16T00:41:22;2.22;;;1.83;;
63218;SDS011;49320;52.512;13.448;2022-10-16T00:46:23;1.70;;;1.45;;
63218;SDS011;49320;52.512;13.448;2022-10-16T00:49:08;1.85;;;1.50;;
63218;SDS011;49320;52.512;13.448;2022-10-16T00:51:44;1.30;;;1.20;;
63218;SDS011;49320;52.512;13.448;2022-10-16T00:54:26;1.35;;;1.13;;
63218;SDS011;49320;52.512;13.448;2022-10-16T00:56:57;1.30;;;1.10;;
63218;SDS011;49320;52.512;13.448;2022-10-16T00:59:33;1.30;;;1.20;;
63218;SDS011;49320;52.512;13.448;2022-10-16T01:02:07;1.50;;;1.38;;
63218;SDS011;49320;52.512;13.448;2022-10-16T01:04:40;1.52;;;1.42;;
63218;SDS011;49320;52.512;13.448;2022-10-16T01:10:24;1.67;;;1.50;;
63218;SDS011;49320;52.512;13.448;2022-10-16T01:13:09;1.83;;;1.50;;
63218;SDS011;49320;52.512;13.448;2022-10-16T01:16:18;1.50;;;1.17;;
63218;SDS011;49320;52.512;13.448;2022-10-16T01:18:45;1.55;;;1.27;;
63218;SDS011;49320;52.512;13.448;2022-10-16T01:21:27;1.45;;;1.35;;
63218;SDS011;49320;52.512;13.448;2022-10-16T01:24:03;1.80;;;1.27;;
63218;SDS011;49320;52.512;13.448;2022-10-16T01:29:44;1.05;;;0.95;;
63218;SDS011;49320;52.512;13.448;2022-10-16T01:35:08;1.58;;;1.15;;
63218;SDS011;49320;52.512;13.448;2022-10-16T01:37:52;1.63;;;0.95;;
63218;SDS011;49320;52.512;13.448;2022-10-16T01:40:36;1.88;;;1.00;;
63218;SDS011;49320;52.512;13.448;2022-10-16T01:45:40;1.65;;;1.17;;
63218;SDS011;49320;52.512;13.448;2022-10-16T01:48:11;2.40;;;1.40;;
63218;SDS011;49320;52.512;13.448;2022-10-16T01:50:43;1.55;;;1.13;;
63218;SDS011;49320;52.512;13.448;2022-10-16T01:53:20;1.77;;;1.20;;
63218;SDS011;49320;52.512;13.448;2022-10-16T01:55:48;1.15;;;1.05;;
63218;SDS011;49320;52.512;13.448;2022-10-16T01:58:20;1.77;;;1.10;;
63218;SDS011;49320;52.512;13.448;2022-10-16T02:00:51;2.38;;;1.30;;
63218;SDS011;49320;52.512;13.448;2022-10-16T02:03:21;0.90;;;0.88;;
63218;SDS011;49320;52.512;13.448;2022-10-16T02:05:54;0.90;;;0.90;;
63218;SDS011;49320;52.512;13.448;2022-10-16T02:08:25;1.23;;;1.13;;
63218;SDS011;49320;52.512;13.448;2022-10-16T02:10:56;1.35;;;1.15;;
63218;SDS011;49320;52.512;13.448;2022-10-16T02:13:33;1.13;;;0.95;;
63218;SDS011;49320;52.512;13.448;2022-10-16T02:16:06;3.30;;;1.33;;
63218;SDS011;49320;52.512;13.448;2022-10-16T02:18:35;2.80;;;1.20;;
63218;SDS011;49320;52.512;13.448;2022-10-16T02:21:13;1.10;;;1.00;;
63218;SDS011;49320;52.512;13.448;2022-10-16T02:23:54;0.85;;;0.85;;
63218;SDS011;49320;52.512;13.448;2022-10-16T02:26:43;0.93;;;0.82;;
63218;SDS011;49320;52.512;13.448;2022-10-16T02:29:20;1.23;;;0.98;;
63218;SDS011;49320;52.512;13.448;2022-10-16T02:31:56;1.20;;;1.05;;
63218;SDS011;49320;52.512;13.448;2022-10-16T02:34:29;1.08;;;0.90;;
63218;SDS011;49320;52.512;13.448;2022-10-16T02:36:59;1.60;;;1.00;;
63218;SDS011;49320;52.512;13.448;2022-10-16T02:39:30;0.88;;;0.88;;
63218;SDS011;49320;52.512;13.448;2022-10-16T02:41:57;1.05;;;0.98;;
63218;SDS011;49320;52.512;13.448;2022-10-16T02:44:24;1.00;;;0.90;;
63218;SDS011;49320;52.512;13.448;2022-10-16T02:46:51;1.10;;;0.90;;
63218;SDS011;49320;52.512;13.448;2022-10-16T02:49:18;0.98;;;0.90;;
63218;SDS011;49320;52.512;13.448;2022-10-16T02:51:44;1.20;;;1.00;;
63218;SDS011;49320;52.512;13.448;2022-10-16T02:54:11;0.90;;;0.80;;
63218;SDS011;49320;52.512;13.448;2022-10-16T02:56:39;1.17;;;0.98;;
63218;SDS011;49320;52.512;13.448;2022-10-16T02:59:05;1.45;;;0.85;;
63218;SDS011;49320;52.512;13.448;2022-10-16T03:01:32;1.20;;;1.00;;
63218;SDS011;49320;52.512;13.448;2022-10-16T03:03:59;0.90;;;0.90;;
63218;SDS011;49320;52.512;13.448;2022-10-16T03:06:26;1.63;;;1.02;;
63218;SDS011;49320;52.512;13.448;2022-10-16T03:08:52;1.33;;;1.00;;
63218;SDS011;49320;52.512;13.448;2022-10-16T03:11:19;0.93;;;0.90;;
63218;SDS011;49320;52.512;13.448;2022-10-16T03:13:46;1.58;;;0.70;;
63218;SDS011;49320;52.512;13.448;2022-10-16T03:16:13;1.58;;;0.70;;
63218;SDS011;49320;52.512;13.448;2022-10-16T03:18:40;1.50;;;1.02;;
63218;SDS011;49320;52.512;13.448;2022-10-16T03:21:06;1.00;;;0.93;;
63218;SDS011;49320;52.512;13.448;2022-10-16T03:23:33;1.52;;;1.10;;
63218;SDS011;49320;52.512;13.448;2022-10-16T03:26:00;0.82;;;0.82;;
63218;SDS011;49320;52.512;13.448;2022-10-16T03:28:27;1.00;;;0.90;;
63218;SDS011;49320;52.512;13.448;2022-10-16T03:30:54;1.10;;;1.00;;
63218;SDS011;49320;52.512;13.448;2022-10-16T03:33:21;1.35;;;1.15;;
63218;SDS011;49320;52.512;13.448;2022-10-16T03:35:51;1.10;;;0.90;;
63218;SDS011;49320;52.512;13.448;2022-10-16T03:38:19;1.20;;;1.02;;
63218;SDS011;49320;52.512;13.448;2022-10-16T03:40:47;1.10;;;1.00;;
63218;SDS011;49320;52.512;13.448;2022-10-16T03:43:14;1.10;;;0.70;;
63218;SDS011;49320;52.512;13.448;2022-10-16T03:45:41;1.83;;;1.55;;
63218;SDS011;49320;52.512;13.448;2022-10-16T03:48:08;2.55;;;1.65;;
63218;SDS011;49320;52.512;13.448;2022-10-16T03:50:35;1.58;;;1.30;;
63218;SDS011;49320;52.512;13.448;2022-10-16T03:53:02;1.50;;;1.00;;
63218;SDS011;49320;52.512;13.448;2022-10-16T03:55:30;1.48;;;1.00;;
63218;SDS011;49320;52.512;13.448;2022-10-16T03:57:56;2.58;;;1.00;;
63218;SDS011;49320;52.512;13.448;2022-10-16T04:00:23;1.23;;;1.10;;
63218;SDS011;49320;52.512;13.448;2022-10-16T04:02:50;1.20;;;1.10;;
63218;SDS011;49320;52.512;13.448;2022-10-16T04:05:17;1.25;;;1.15;;
63218;SDS011;49320;52.512;13.448;2022-10-16T04:07:43;1.50;;;0.85;;
63218;SDS011;49320;52.512;13.448;2022-10-16T04:10:10;1.38;;;1.13;;
63218;SDS011;49320;52.512;13.448;2022-10-16T04:12:37;1.05;;;0.95;;
63218;SDS011;49320;52.512;13.448;2022-10-16T04:15:04;1.23;;;1.08;;
63218;SDS011;49320;52.512;13.448;2022-10-16T04:17:31;0.95;;;0.80;;
63218;SDS011;49320;52.512;13.448;2022-10-16T04:19:57;1.38;;;1.13;;
63218;SDS011;49320;52.512;13.448;2022-10-16T04:22:24;1.00;;;0.90;;
63218;SDS011;49320;52.512;13.448;2022-10-16T04:24:52;1.17;;;1.05;;
63218;SDS011;49320;52.512;13.448;2022-10-16T04:27:19;2.20;;;1.00;;
63218;SDS011;49320;52.512;13.448;2022-10-16T04:29:46;1.98;;;1.40;;
63218;SDS011;49320;52.512;13.448;2022-10-16T04:32:12;1.20;;;1.02;;
63218;SDS011;49320;52.512;13.448;2022-10-16T04:34:39;1.20;;;0.93;;
63218;SDS011;49320;52.512;13.448;2022-10-16T04:37:06;1.58;;;1.00;;
63218;SDS011;49320;52.512;13.448;2022-10-16T04:39:33;3.38;;;1.23;;
63218;SDS011;49320;52.512;13.448;2022-10-16T04:41:59;1.13;;;1.00;;
63218;SDS011;49320;52.512;13.448;2022-10-16T04:44:26;1.80;;;1.02;;
63218;SDS011;49320;52.512;13.448;2022-10-16T04:46:53;1.10;;;0.90;;
63218;SDS011;49320;52.512;13.448;2022-10-16T04:49:20;1.02;;;0.93;;
63218;SDS011;49320;52.512;13.448;2022-10-16T04:51:47;1.20;;;1.10;;
63218;SDS011;49320;52.512;13.448;2022-10-16T04:54:13;1.73;;;1.05;;
63218;SDS011;49320;52.512;13.448;2022-10-16T04:56:40;1.30;;;1.10;;
63218;SDS011;49320;52.512;13.448;2022-10-16T04:59:13;2.08;;;1.10;;
63218;SDS011;49320;52.512;13.448;2022-10-16T05:01:41;1.52;;;1.27;;
63218;SDS011;49320;52.512;13.448;2022-10-16T05:04:08;1.80;;;1.30;;
63218;SDS011;49320;52.512;13.448;2022-10-16T05:06:35;1.25;;;1.10;;
63218;SDS011;49320;52.512;13.448;2022-10-16T05:09:02;2.58;;;1.30;;
63218;SDS011;49320;52.512;13.448;2022-10-16T05:11:29;1.40;;;1.00;;
63218;SDS011;49320;52.512;13.448;2022-10-16T05:13:56;1.20;;;1.10;;
63218;SDS011;49320;52.512;13.448;2022-10-16T05:16:23;1.40;;;1.30;;
63218;SDS011;49320;52.512;13.448;2022-10-16T05:18:53;1.90;;;1.50;;
63218;SDS011;49320;52.512;13.448;2022-10-16T05:21:29;1.50;;;1.40;;
63218;SDS011;49320;52.512;13.448;2022-10-16T05:23:56;1.90;;;1.40;;
63218;SDS011;49320;52.512;13.448;2022-10-16T05:26:23;2.22;;;1.38;;
63218;SDS011;49320;52.512;13.448;2022-10-16T05:28:49;1.63;;;1.42;;
63218;SDS011;49320;52.512;13.448;2022-10-16T05:31:16;1.80;;;1.20;;
63218;SDS011;49320;52.512;13.448;2022-10-16T05:33:43;1.48;;;1.25;;
63218;SDS011;49320;52.512;13.448;2022-10-16T05:36:10;2.80;;;1.30;;
63218;SDS011;49320;52.512;13.448;2022-10-16T05:38:37;1.60;;;1.35;;
63218;SDS011;49320;52.512;13.448;2022-10-16T05:41:05;1.40;;;1.30;;
63218;SDS011;49320;52.512;13.448;2022-10-16T05:43:32;1.60;;;1.50;;
63218;SDS011;49320;52.512;13.448;2022-10-16T05:45:59;2.15;;;1.50;;
63218;SDS011;49320;52.512;13.448;2022-10-16T05:48:31;1.65;;;1.48;;
63218;SDS011;49320;52.512;13.448;2022-10-16T05:50:59;2.40;;;1.27;;
63218;SDS011;49320;52.512;13.448;2022-10-16T05:53:35;2.15;;;1.17;;
63218;SDS011;49320;52.512;13.448;2022-10-16T05:56:04;3.00;;;1.40;;
63218;SDS011;49320;52.512;13.448;2022-10-16T05:58:34;1.83;;;1.33;;
63218;SDS011;49320;52.512;13.448;2022-10-16T06:01:07;1.65;;;1.42;;
63218;SDS011;49320;52.512;13.448;2022-10-16T06:03:38;1.58;;;1.30;;
63218;SDS011;49320;52.512;13.448;2022-10-16T06:06:10;1.73;;;1.17;;
63218;SDS011;49320;52.512;13.448;2022-10-16T06:08:42;1.40;;;1.30;;
63218;SDS011;49320;52.512;13.448;2022-10-16T06:11:15;1.67;;;1.30;;
63218;SDS011;49320;52.512;13.448;2022-10-16T06:13:44;2.53;;;1.20;;
63218;SDS011;49320;52.512;13.448;2022-10-16T06:16:15;3.40;;;1.20;;
63218;SDS011;49320;52.512;13.448;2022-10-16T06:18:42;2.05;;;1.20;;
63218;SDS011;49320;52.512;13.448;2022-10-16T06:21:09;1.25;;;1.05;;
63218;SDS011;49320;52.512;13.448;2022-10-16T06:23:42;2.28;;;1.58;;
63218;SDS011;49320;52.512;13.448;2022-10-16T06:26:15;1.73;;;1.52;;
63218;SDS011;49320;52.512;13.448;2022-10-16T06:28:47;2.05;;;1.42;;
63218;SDS011;49320;52.512;13.448;2022-10-16T06:31:14;1.77;;;1.52;;
63218;SDS011;49320;52.512;13.448;2022-10-16T06:33:42;1.65;;;1.55;;
63218;SDS011;49320;52.512;13.448;2022-10-16T06:36:12;2.88;;;1.75;;
63218;SDS011;49320;52.512;13.448;2022-10-16T06:38:43;2.20;;;1.42;;
63218;SDS011;49320;52.512;13.448;2022-10-16T06:41:15;2.17;;;1.60;;
63218;SDS011;49320;52.512;13.448;2022-10-16T06:43:44;1.38;;;1.27;;
63218;SDS011;49320;52.512;13.448;2022-10-16T06:46:13;2.15;;;1.50;;
63218;SDS011;49320;52.512;13.448;2022-10-16T06:48:43;2.00;;;1.65;;
63218;SDS011;49320;52.512;13.448;2022-10-16T06:51:11;2.75;;;1.98;;
63218;SDS011;49320;52.512;13.448;2022-10-16T06:53:42;2.30;;;1.90;;
63218;SDS011;49320;52.512;13.448;2022-10-16T06:56:28;1.58;;;1.20;;
63218;SDS011;49320;52.512;13.448;2022-10-16T06:58:57;1.52;;;1.40;;
63218;SDS011;49320;52.512;13.448;2022-10-16T07:01:25;1.88;;;1.60;;
63218;SDS011;49320;52.512;13.448;2022-10-16T07:03:54;1.73;;;1.23;;
63218;SDS011;49320;52.512;13.448;2022-10-16T07:06:21;2.10;;;1.67;;
63218;SDS011;49320;52.512;13.448;2022-10-16T07:08:50;2.05;;;1.63;;
63218;SDS011;49320;52.512;13.448;2022-10-16T07:11:19;1.90;;;1.70;;
63218;SDS011;49320;52.512;13.448;2022-10-16T07:13:49;2.67;;;1.85;;
63218;SDS011;49320;52.512;13.448;2022-10-16T07:16:25;5.50;;;1.95;;
63218;SDS011;49320;52.512;13.448;2022-10-16T07:18:55;2.70;;;1.60;;
63218;SDS011;49320;52.512;13.448;2022-10-16T07:21:27;2.20;;;1.55;;
63218;SDS011;49320;52.512;13.448;2022-10-16T07:23:58;2.20;;;1.85;;
63218;SDS011;49320;52.512;13.448;2022-10-16T07:26:28;3.15;;;1.88;;
63218;SDS011;49320;52.512;13.448;2022-10-16T07:28:56;3.75;;;2.10;;
63218;SDS011;49320;52.512;13.448;2022-10-16T07:31:24;2.67;;;1.80;;
63218;SDS011;49320;52.512;13.448;2022-10-16T07:33:51;4.07;;;1.90;;
63218;SDS011;49320;52.512;13.448;2022-10-16T07:36:18;2.55;;;1.80;;
63218;SDS011;49320;52.512;13.448;2022-10-16T07:38:47;3.45;;;1.70;;
63218;SDS011;49320;52.512;13.448;2022-10-16T07:41:14;1.63;;;1.52;;
63218;SDS011;49320;52.512;13.448;2022-10-16T07:43:48;3.75;;;1.73;;
63218;SDS011;49320;52.512;13.448;2022-10-16T07:46:18;1.83;;;1.27;;
63218;SDS011;49320;52.512;13.448;2022-10-16T07:48:46;1.77;;;1.20;;
63218;SDS011;49320;52.512;13.448;2022-10-16T07:51:16;1.85;;;1.45;;
63218;SDS011;49320;52.512;13.448;2022-10-16T07:53:45;1.63;;;1.42;;
63218;SDS011;49320;52.512;13.448;2022-10-16T07:56:13;1.40;;;1.30;;
63218;SDS011;49320;52.512;13.448;2022-10-16T07:58:41;2.13;;;1.60;;
63218;SDS011;49320;52.512;13.448;2022-10-16T08:01:12;1.35;;;1.25;;
63218;SDS011;49320;52.512;13.448;2022-10-16T08:03:42;2.47;;;1.13;;
63218;SDS011;49320;52.512;13.448;2022-10-16T08:06:10;1.50;;;1.00;;
63218;SDS011;49320;52.512;13.448;2022-10-16T08:08:37;2.05;;;1.65;;
63218;SDS011;49320;52.512;13.448;2022-10-16T08:11:04;2.63;;;1.50;;
63218;SDS011;49320;52.512;13.448;2022-10-16T08:13:31;2.42;;;1.50;;
63218;SDS011;49320;52.512;13.448;2022-10-16T08:15:58;1.23;;;1.10;;
63218;SDS011;49320;52.512;13.448;2022-10-16T08:18:25;1.35;;;1.10;;
63218;SDS011;49320;52.512;13.448;2022-10-16T08:20:55;2.05;;;1.38;;
63218;SDS011;49320;52.512;13.448;2022-10-16T08:23:28;4.22;;;2.83;;
63218;SDS011;49320;52.512;13.448;2022-10-16T08:25:56;2.80;;;2.03;;
63218;SDS011;49320;52.512;13.448;2022-10-16T08:28:33;2.53;;;1.85;;
63218;SDS011;49320;52.512;13.448;2022-10-16T08:31:05;1.48;;;1.20;;
63218;SDS011;49320;52.512;13.448;2022-10-16T08:33:35;1.70;;;1.30;;
63218;SDS011;49320;52.512;13.448;2022-10-16T08:36:03;1.48;;;1.20;;
63218;SDS011;49320;52.512;13.448;2022-10-16T08:38:31;2.42;;;1.10;;
63218;SDS011;49320;52.512;13.448;2022-10-16T08:47:23;1.38;;;0.82;;
63218;SDS011;49320;52.512;13.448;2022-10-16T08:50:02;0.75;;;0.75;;
63218;SDS011;49320;52.512;13.448;2022-10-16T08:52:39;1.42;;;1.15;;
63218;SDS011;49320;52.512;13.448;2022-10-16T08:55:24;0.90;;;0.90;;
63218;SDS011;49320;52.512;13.448;2022-10-16T08:57:59;1.13;;;1.02;;
63218;SDS011;49320;52.512;13.448;2022-10-16T09:00:27;1.60;;;1.15;;
63218;SDS011;49320;52.512;13.448;2022-10-16T09:06:26;1.35;;;1.25;;
63218;SDS011;49320;52.512;13.448;2022-10-16T09:09:14;1.83;;;1.38;;
63218;SDS011;49320;52.512;13.448;2022-10-16T09:11:52;1.73;;;0.80;;
63218;SDS011;49320;52.512;13.448;2022-10-16T09:14:53;1.20;;;0.88;;
63218;SDS011;49320;52.512;13.448;2022-10-16T09:23:42;1.60;;;1.10;;
63218;SDS011;49320;52.512;13.448;2022-10-16T09:26:11;1.90;;;1.45;;
63218;SDS011;49320;52.512;13.448;2022-10-16T09:28:41;0.95;;;0.80;;
63218;SDS011;49320;52.512;13.448;2022-10-16T09:31:13;0.75;;;0.70;;
63218;SDS011;49320;52.512;13.448;2022-10-16T09:33:47;0.70;;;0.70;;
63218;SDS011;49320;52.512;13.448;2022-10-16T09:36:23;1.35;;;1.00;;
63218;SDS011;49320;52.512;13.448;2022-10-16T09:39:04;1.83;;;1.17;;
63218;SDS011;49320;52.512;13.448;2022-10-16T09:41:34;1.80;;;1.08;;
63218;SDS011;49320;52.512;13.448;2022-10-16T09:44:06;1.00;;;0.80;;
63218;SDS011;49320;52.512;13.448;2022-10-16T09:46:49;0.80;;;0.80;;
63218;SDS011;49320;52.512;13.448;2022-10-16T09:49:26;0.80;;;0.70;;
63218;SDS011;49320;52.512;13.448;2022-10-16T09:52:04;1.73;;;0.98;;
63218;SDS011;49320;52.512;13.448;2022-10-16T09:54:55;1.13;;;0.82;;
63218;SDS011;49320;52.512;13.448;2022-10-16T09:57:28;0.70;;;0.70;;
63218;SDS011;49320;52.512;13.448;2022-10-16T09:59:57;1.38;;;0.80;;
63218;SDS011;49320;52.512;13.448;2022-10-16T10:05:02;0.90;;;0.85;;
63218;SDS011;49320;52.512;13.448;2022-10-16T10:07:43;0.88;;;0.80;;
63218;SDS011;49320;52.512;13.448;2022-10-16T10:10:19;1.63;;;0.95;;
63218;SDS011;49320;52.512;13.448;2022-10-16T10:12:56;1.10;;;0.85;;
63218;SDS011;49320;52.512;13.448;2022-10-16T10:15:24;1.05;;;0.80;;
63218;SDS011;49320;52.512;13.448;2022-10-16T10:17:54;1.48;;;0.85;;
63218;SDS011;49320;52.512;13.448;2022-10-16T10:20:35;1.83;;;0.88;;
63218;SDS011;49320;52.512;13.448;2022-10-16T10:23:21;4.95;;;1.00;;
63218;SDS011;49320;52.512;13.448;2022-10-16T10:25:55;1.77;;;0.85;;
63218;SDS011;49320;52.512;13.448;2022-10-16T10:28:50;1.33;;;0.93;;
63218;SDS011;49320;52.512;13.448;2022-10-16T10:34:26;1.00;;;0.90;;
63218;SDS011;49320;52.512;13.448;2022-10-16T10:37:34;3.88;;;1.00;;
63218;SDS011;49320;52.512;13.448;2022-10-16T10:40:32;1.52;;;0.82;;
63218;SDS011;49320;52.512;13.448;2022-10-16T10:43:30;1.98;;;1.02;;
63218;SDS011;49320;52.512;13.448;2022-10-16T10:46:32;3.45;;;1.38;;
63218;SDS011;49320;52.512;13.448;2022-10-16T10:49:24;0.88;;;0.80;;
63218;SDS011;49320;52.512;13.448;2022-10-16T10:52:08;1.05;;;0.80;;
63218;SDS011;49320;52.512;13.448;2022-10-16T10:58:19;0.80;;;0.80;;
63218;SDS011;49320;52.512;13.448;2022-10-16T11:04:45;1.02;;;0.82;;
63218;SDS011;49320;52.512;13.448;2022-10-16T11:07:52;1.25;;;0.85;;
63218;SDS011;49320;52.512;13.448;2022-10-16T11:10:46;0.82;;;0.80;;
63218;SDS011;49320;52.512;13.448;2022-10-16T11:13:30;1.10;;;0.80;;
63218;SDS011;49320;52.512;13.448;2022-10-16T11:16:22;0.98;;;0.80;;
63218;SDS011;49320;52.512;13.448;2022-10-16T11:24:46;2.83;;;0.98;;
63218;SDS011;49320;52.512;13.448;2022-10-16T11:27:34;1.48;;;0.90;;
63218;SDS011;49320;52.512;13.448;2022-10-16T11:35:47;1.05;;;0.95;;
63218;SDS011;49320;52.512;13.448;2022-10-16T11:38:34;0.80;;;0.80;;
63218;SDS011;49320;52.512;13.448;2022-10-16T11:41:23;0.93;;;0.77;;
63218;SDS011;49320;52.512;13.448;2022-10-16T11:44:09;1.58;;;0.85;;
63218;SDS011;49320;52.512;13.448;2022-10-16T11:56:18;1.60;;;0.90;;
63218;SDS011;49320;52.512;13.448;2022-10-16T11:58:51;0.90;;;0.70;;
63218;SDS011;49320;52.512;13.448;2022-10-16T12:07:36;1.88;;;0.80;;
63218;SDS011;49320;52.512;13.448;2022-10-16T12:12:52;1.00;;;0.60;;
63218;SDS011;49320;52.512;13.448;2022-10-16T12:18:20;1.30;;;1.13;;
63218;SDS011;49320;52.512;13.448;2022-10-16T12:20:56;0.75;;;0.70;;
63218;SDS011;49320;52.512;13.448;2022-10-16T12:23:32;0.90;;;0.70;;
63218;SDS011;49320;52.512;13.448;2022-10-16T12:26:04;1.25;;;0.70;;
63218;SDS011;49320;52.512;13.448;2022-10-16T12:28:32;0.93;;;0.70;;
63218;SDS011;49320;52.512;13.448;2022-10-16T12:31:03;0.80;;;0.80;;
63218;SDS011;49320;52.512;13.448;2022-10-16T12:33:36;0.80;;;0.50;;
63218;SDS011;49320;52.512;13.448;2022-10-16T12:36:10;0.70;;;0.65;;
63218;SDS011;49320;52.512;13.448;2022-10-16T12:39:00;1.42;;;0.65;;
63218;SDS011;49320;52.512;13.448;2022-10-16T12:41:28;0.70;;;0.70;;
63218;SDS011;49320;52.512;13.448;2022-10-16T12:43:59;1.20;;;0.80;;
63218;SDS011;49320;52.512;13.448;2022-10-16T12:51:42;0.65;;;0.65;;
63218;SDS011;49320;52.512;13.448;2022-10-16T12:57:03;1.35;;;0.70;;
63218;SDS011;49320;52.512;13.448;2022-10-16T12:59:47;2.30;;;0.90;;
63218;SDS011;49320;52.512;13.448;2022-10-16T13:02:49;0.60;;;0.60;;
63218;SDS011;49320;52.512;13.448;2022-10-16T13:08:09;2.35;;;0.70;;
63218;SDS011;49320;52.512;13.448;2022-10-16T13:14:23;0.82;;;0.80;;
63218;SDS011;49320;52.512;13.448;2022-10-16T13:17:11;0.85;;;0.68;;
63218;SDS011;49320;52.512;13.448;2022-10-16T13:19:58;0.45;;;0.45;;
63218;SDS011;49320;52.512;13.448;2022-10-16T13:23:14;1.98;;;0.82;;
63218;SDS011;49320;52.512;13.448;2022-10-16T13:28:54;1.15;;;0.75;;
63218;SDS011;49320;52.512;13.448;2022-10-16T13:31:27;0.60;;;0.60;;
63218;SDS011;49320;52.512;13.448;2022-10-16T13:33:56;2.80;;;0.75;;
63218;SDS011;49320;52.512;13.448;2022-10-16T13:36:26;1.58;;;0.50;;
63218;SDS011;49320;52.512;13.448;2022-10-16T13:39:46;0.65;;;0.60;;
63218;SDS011;49320;52.512;13.448;2022-10-16T13:42:05;0.95;;;0.68;;
63218;SDS011;49320;52.512;13.448;2022-10-16T13:44:48;0.77;;;0.70;;
63218;SDS011;49320;52.512;13.448;2022-10-16T13:50:00;2.72;;;0.98;;
63218;SDS011;49320;52.512;13.448;2022-10-16T13:52:37;1.75;;;0.70;;
63218;SDS011;49320;52.512;13.448;2022-10-16T13:55:15;0.90;;;0.90;;
63218;SDS011;49320;52.512;13.448;2022-10-16T13:57:44;1.08;;;0.60;;
63218;SDS011;49320;52.512;13.448;2022-10-16T14:00:21;0.93;;;0.75;;
63218;SDS011;49320;52.512;13.448;2022-10-16T14:02:58;1.20;;;0.80;;
63218;SDS011;49320;52.512;13.448;2022-10-16T14:05:48;0.98;;;0.68;;
63218;SDS011;49320;52.512;13.448;2022-10-16T14:08:19;1.92;;;0.70;;
63218;SDS011;49320;52.512;13.448;2022-10-16T14:10:48;0.50;;;0.50;;
63218;SDS011;49320;52.512;13.448;2022-10-16T14:16:08;1.10;;;0.70;;
63218;SDS011;49320;52.512;13.448;2022-10-16T14:18:44;1.35;;;0.50;;
63218;SDS011;49320;52.512;13.448;2022-10-16T14:21:20;0.57;;;0.50;;
63218;SDS011;49320;52.512;13.448;2022-10-16T14:23:47;1.40;;;0.88;;
63218;SDS011;49320;52.512;13.448;2022-10-16T14:26:15;1.00;;;0.90;;
63218;SDS011;49320;52.512;13.448;2022-10-16T14:28:45;1.40;;;0.80;;
63218;SDS011;49320;52.512;13.448;2022-10-16T14:31:30;1.50;;;0.98;;
63218;SDS011;49320;52.512;13.448;2022-10-16T14:34:00;1.60;;;0.70;;
63218;SDS011;49320;52.512;13.448;2022-10-16T14:36:27;0.90;;;0.60;;
63218;SDS011;49320;52.512;13.448;2022-10-16T14:38:59;0.70;;;0.70;;
63218;SDS011;49320;52.512;13.448;2022-10-16T14:41:28;0.70;;;0.70;;
63218;SDS011;49320;52.512;13.448;2022-10-16T14:44:01;1.27;;;0.90;;
63218;SDS011;49320;52.512;13.448;2022-10-16T14:46:34;0.70;;;0.70;;
63218;SDS011;49320;52.512;13.448;2022-10-16T14:51:37;1.15;;;0.90;;
63218;SDS011;49320;52.512;13.448;2022-10-16T14:54:10;1.08;;;0.70;;
63218;SDS011;49320;52.512;13.448;2022-10-16T14:56:46;1.02;;;0.73;;
63218;SDS011;49320;52.512;13.448;2022-10-16T14:59:39;2.08;;;1.00;;
63218;SDS011;49320;52.512;13.448;2022-10-16T15:02:27;1.13;;;0.95;;
63218;SDS011;49320;52.512;13.448;2022-10-16T15:04:56;0.80;;;0.60;;
63218;SDS011;49320;52.512;13.448;2022-10-16T15:07:28;1.38;;;0.88;;
63218;SDS011;49320;52.512;13.448;2022-10-16T15:09:55;1.08;;;0.80;;
63218;SDS011;49320;52.512;13.448;2022-10-16T15:12:23;1.30;;;1.00;;
63218;SDS011;49320;52.512;13.448;2022-10-16T15:14:50;1.15;;;0.85;;
63218;SDS011;49320;52.512;13.448;2022-10-16T15:17:16;2.67;;;0.80;;
63218;SDS011;49320;52.512;13.448;2022-10-16T15:19:47;1.52;;;0.77;;
63218;SDS011;49320;52.512;13.448;2022-10-16T15:22:14;3.47;;;1.15;;
63218;SDS011;49320;52.512;13.448;2022-10-16T15:24:40;2.15;;;0.90;;
63218;SDS011;49320;52.512;13.448;2022-10-16T15:27:07;0.95;;;0.80;;
63218;SDS011;49320;52.512;13.448;2022-10-16T15:29:34;3.03;;;0.93;;
63218;SDS011;49320;52.512;13.448;2022-10-16T15:32:01;3.90;;;1.13;;
63218;SDS011;49320;52.512;13.448;2022-10-16T15:34:28;2.08;;;1.20;;
63218;SDS011;49320;52.512;13.448;2022-10-16T15:36:55;1.33;;;1.00;;
63218;SDS011;49320;52.512;13.448;2022-10-16T15:39:23;2.13;;;1.00;;
63218;SDS011;49320;52.512;13.448;2022-10-16T15:41:50;0.95;;;0.80;;
63218;SDS011;49320;52.512;13.448;2022-10-16T15:44:19;0.82;;;0.73;;
63218;SDS011;49320;52.512;13.448;2022-10-16T15:46:49;1.13;;;0.80;;
63218;SDS011;49320;52.512;13.448;2022-10-16T15:49:15;0.85;;;0.73;;
63218;SDS011;49320;52.512;13.448;2022-10-16T15:51:42;0.80;;;0.70;;
63218;SDS011;49320;52.512;13.448;2022-10-16T15:54:09;0.90;;;0.90;;
63218;SDS011;49320;52.512;13.448;2022-10-16T15:56:36;1.38;;;0.98;;
63218;SDS011;49320;52.512;13.448;2022-10-16T15:59:03;2.08;;;1.10;;
63218;SDS011;49320;52.512;13.448;2022-10-16T16:01:34;1.45;;;1.00;;
63218;SDS011;49320;52.512;13.448;2022-10-16T16:04:02;1.45;;;1.00;;
63218;SDS011;49320;52.512;13.448;2022-10-16T16:06:45;1.00;;;0.90;;
63218;SDS011;49320;52.512;13.448;2022-10-16T16:09:12;1.30;;;1.20;;
63218;SDS011;49320;52.512;13.448;2022-10-16T16:11:40;2.30;;;1.05;;
63218;SDS011;49320;52.512;13.448;2022-10-16T16:14:07;1.38;;;1.02;;
63218;SDS011;49320;52.512;13.448;2022-10-16T16:16:39;1.08;;;0.88;;
63218;SDS011;49320;52.512;13.448;2022-10-16T16:19:05;2.55;;;1.10;;
63218;SDS011;49320;52.512;13.448;2022-10-16T16:21:36;1.30;;;0.88;;
63218;SDS011;49320;52.512;13.448;2022-10-16T16:24:04;1.40;;;1.02;;
63218;SDS011;49320;52.512;13.448;2022-10-16T16:26:34;1.33;;;1.20;;
63218;SDS011;49320;52.512;13.448;2022-10-16T16:29:05;2.30;;;1.00;;
63218;SDS011;49320;52.512;13.448;2022-10-16T16:31:33;1.50;;;1.00;;
63218;SDS011;49320;52.512;13.448;2022-10-16T16:34:00;1.60;;;1.10;;
63218;SDS011;49320;52.512;13.448;2022-10-16T16:36:27;2.65;;;1.50;;
63218;SDS011;49320;52.512;13.448;2022-10-16T16:38:54;3.35;;;1.77;;
63218;SDS011;49320;52.512;13.448;2022-10-16T16:41:24;2.00;;;1.55;;
63218;SDS011;49320;52.512;13.448;2022-10-16T16:43:54;3.17;;;1.60;;
63218;SDS011;49320;52.512;13.448;2022-10-16T16:46:22;3.03;;;1.52;;